Terminal Aerodrome Forecast
Issued by NWS

Home | Current Version | Previous Version | Text Only | Print | Product List | Glossary On
Versions: 1 2 3 4 5 6 7 8 9 10 11 12 13 14 15 16 17 18 19
000
FTUS43 KDVN 251700
TAFCID
TAF
KCID 251720Z 2518/2618 05014G22KT P6SM VCSH SCT012 OVC025
      TEMPO 2518/2519 5SM -SN BR BKN012
     FM252000 01011G18KT P6SM BKN035
     FM260200 34004KT P6SM SCT250
     FM261400 18007KT P6SM BKN070 OVC150=

USA.gov is the U.S. government's official web portal to all federal, state and local government web resources and services.